Terminal Aerodrome Forecast
Issued by NWS Sterling, VA

Home | Current Version | Previous Version | Text Only | Print | Product List | Glossary On
Versions: 1 2 3 4 5 6 7 8 9 10 11 12 13 14 15 16 17 18 19 20 21 22 23 24 25 26 27 28 29 30 31 32 33 34 35 36 37 38
000
FTUS41 KLWX 200541
TAFMRB
TAF
KMRB 200541Z 2006/2106 VRB03KT 2SM -RA OVC002 WS020/18035KT
     FM200800 VRB03KT 1SM -RA OVC004
     FM201000 31005KT P6SM OVC008
     FM201300 32012G22KT P6SM BKN015
     FM201400 32016G30KT P6SM BKN015
     FM201600 32021G38KT P6SM BKN025
     FM202000 32021G40KT P6SM FEW045
     FM202200 31021G39KT P6SM SKC=

USA.gov is the U.S. government's official web portal to all federal, state and local government web resources and services.